Main page
Satellite images 15-day forecastsClimateMarine weather Cyclones Lightning AirportsFAQ Newsletter About
Weather : Europe Africa North America South America Asia Australia-Oceania Others
Languages Contact

London, England

City airport

latitude: 51-30N, longitude: 000-03E, elevation: 5 m


METAR: EGLC 230150Z AUTO 23007KT 9999 BKN030/// 12/08 Q1022
TAF: EGLC 221702Z 2218/2221 24009KT 9999 SCT030

Time: 03:19 (02:19 UTC)

Current weather observation

The report was made 29 minutes ago, at 01:50 UTC
Wind 7 kt from the Southwest
Temperature 12°C
Humidity 76%
Pressure 1022 hPa
Visibility 10 km or more

Change units

Forecast

The report was made 9 hours and 17 minutes ago, at 17:02 UTC
Forecast valid from 22 at 18 UTC to 22 at 21 UTC
Wind 9 kt from the West/Southwest
Visibility 10 km or more
Scattered clouds at a height of 3000 ft
The information on this site is subject to a disclaimer
Weather : Europe Africa North America South America Asia Australia-Oceania Others
Satellite images 15-day forecastsClimateMarine weather Cyclones Lightning AirportsFAQ Languages Contact Newsletter About